Time;durP1;ratioP1;P1;durP2;ratioP2;P2;SDS_P1;SDS_P2;PMS_P1;PMS_P2;Temp;Humidity;BMP_temperature;BMP_pressure;BME280_temperature;BME280_humidity;BME280_pressure;Samples;Min_cycle;Max_cycle;Signal;HPM_P1;HPM_P2
2023/01/06 00:01:14;;;;;;;;;;;;;;;27.35;64.67;101043.19;5045413;27;65418;-34
2023/01/06 00:03:52;;;;;;;;;;;;;;;27.38;64.40;101049.00;5042470;27;69939;-36
2023/01/06 00:06:26;;;;;;;;;;;;;;;27.36;64.44;101061.03;5082785;27;66065;-35
2023/01/06 00:08:58;;;;;;;;;;;;;;;27.40;64.48;101057.75;5079006;27;69789;-34
2023/01/06 00:11:29;;;;;;;;;;;;;;;27.45;64.30;101059.88;5058729;28;65994;-34
2023/01/06 00:14:00;;;;;;;;;;;;;;;27.43;64.34;101064.59;5080973;27;70028;-34
2023/01/06 00:16:31;;;;;;;;;;;;;;;27.44;64.52;101062.75;5079372;27;65295;-33
2023/01/06 00:19:02;;;;;;;;;;;;;;;27.44;64.16;101063.56;5081536;27;69713;-35
2023/01/06 00:21:33;;;;;;;;;;;;;;;27.41;64.45;101063.94;5073733;27;66033;-35
2023/01/06 00:24:04;;;;;;;;;;;;;;;27.45;63.71;101081.41;5084468;27;69446;-36
2023/01/06 00:26:35;;;;;;;;;;;;;;;27.45;63.67;101075.19;5073858;27;66577;-35
2023/01/06 00:29:08;;;;;;;;;;;;;;;27.45;63.39;101069.81;5079898;27;70188;-35
2023/01/06 00:31:39;;;;;;;;;;;;;;;27.48;63.44;101081.03;5063919;27;66118;-35
2023/01/06 00:34:10;;;;;;;;;;;;;;;27.17;63.19;101032.88;5078639;27;69951;-37
2023/01/06 00:36:41;;;;;;;;;;;;;;;27.47;63.12;101082.06;5059708;28;66789;-34
2023/01/06 00:39:12;;;;;;;;;;;;;;;27.52;63.36;101093.06;5078344;27;70445;-35
2023/01/06 00:44:36;;;;;;;;;;;;;;;27.52;63.16;101098.47;5072544;27;70791;-40
2023/01/06 00:47:08;;;;;;;;;;;;;;;27.34;63.40;101107.00;5072840;27;66761;-37
2023/01/06 00:49:42;;;;;;;;;;;;;;;27.20;63.71;101117.81;5091086;27;63312;-37
2023/01/06 00:52:13;;;;;;;;;;;;;;;27.17;64.07;101119.88;5092140;27;65677;-37
2023/01/06 00:54:44;;;;;;;;;;;;;;;27.17;63.83;101124.41;5071519;27;70367;-37
2023/01/06 00:57:15;;;;;;;;;;;;;;;27.18;63.59;101128.78;5071672;27;65214;-36
2023/01/06 00:59:46;;;;;;;;;;;;;;;27.20;63.64;101131.28;5050667;27;70999;-39
2023/01/06 01:02:16;;;;;;;;;;;;;;;27.22;63.45;101134.59;5081303;27;65688;-37
2023/01/06 01:04:47;;;;;;;;;;;;;;;27.22;63.39;101135.47;5092810;27;71334;-36
2023/01/06 01:07:18;;;;;;;;;;;;;;;27.24;63.25;101132.56;5087782;27;66054;-37
2023/01/06 01:09:49;;;;;;;;;;;;;;;27.26;63.12;101135.91;5067029;27;70298;-37
2023/01/06 01:12:21;;;;;;;;;;;;;;;27.28;62.97;101144.66;5079180;27;65229;-37
2023/01/06 01:14:53;;;;;;;;;;;;;;;27.29;63.20;101138.22;5064438;27;69155;-37
2023/01/06 01:17:25;;;;;;;;;;;;;;;27.30;62.75;101143.44;5085360;27;66270;-37
2023/01/06 01:19:59;;;;;;;;;;;;;;;27.32;62.94;101151.31;5089669;27;70300;-38
2023/01/06 01:22:31;;;;;;;;;;;;;;;27.32;62.90;101149.44;5064846;27;66922;-37
2023/01/06 01:25:02;;;;;;;;;;;;;;;27.33;62.59;101151.13;5080132;27;70179;-38
2023/01/06 01:27:32;;;;;;;;;;;;;;;27.33;62.50;101151.13;5080996;27;67335;-37
2023/01/06 01:30:03;;;;;;;;;;;;;;;27.35;62.39;101159.00;5092906;27;71070;-39
2023/01/06 01:32:34;;;;;;;;;;;;;;;27.36;62.40;101153.44;5089319;27;65568;-37
2023/01/06 01:35:05;;;;;;;;;;;;;;;27.36;62.35;101164.22;5087982;27;70401;-38
2023/01/06 01:37:36;;;;;;;;;;;;;;;27.39;62.26;101168.41;5094204;27;66364;-37
2023/01/06 01:40:07;;;;;;;;;;;;;;;27.39;61.99;101163.00;5067553;27;69979;-39
2023/01/06 01:42:38;;;;;;;;;;;;;;;27.40;61.85;101170.06;5084623;27;65361;-38
2023/01/06 01:45:26;;;;;;;;;;;;;;;27.42;61.82;101167.19;5089896;27;71230;-37
2023/01/06 01:47:59;;;;;;;;;;;;;;;27.42;61.86;101168.00;5033744;27;66160;-37
2023/01/06 01:50:30;;;;;;;;;;;;;;;27.41;61.77;101163.63;5081844;27;70595;-36
2023/01/06 01:53:05;;;;;;;;;;;;;;;27.43;61.57;101164.28;5087052;27;67165;-38
2023/01/06 01:55:36;;;;;;;;;;;;;;;27.45;61.40;101172.19;5083612;27;69601;-39
2023/01/06 01:58:09;;;;;;;;;;;;;;;27.45;61.43;101173.03;5083980;27;66861;-37
2023/01/06 02:00:42;;;;;;;;;;;;;;;27.46;61.24;101153.13;5088385;27;69319;-37
2023/01/06 02:03:13;;;;;;;;;;;;;;;27.43;61.36;101158.91;5082525;27;67226;-37
2023/01/06 02:05:48;;;;;;;;;;;;;;;27.48;61.18;101156.47;5086069;27;70344;-37
2023/01/06 02:08:34;;;;;;;;;;;;;;;27.49;61.03;101158.13;5074044;28;66377;-37
2023/01/06 02:11:05;;;;;;;;;;;;;;;27.50;61.01;101164.38;5087983;27;71171;-36
2023/01/06 02:13:38;;;;;;;;;;;;;;;27.51;60.90;101169.56;5060268;27;65080;-37
2023/01/06 02:16:11;;;;;;;;;;;;;;;27.52;60.83;101154.22;5076045;27;70206;-41
2023/01/06 02:18:54;;;;;;;;;;;;;;;27.53;61.04;101158.59;5065857;27;65898;-36
2023/01/06 02:21:31;;;;;;;;;;;;;;;27.54;60.67;101163.78;5068664;28;69978;-39
2023/01/06 02:24:20;;;;;;;;;;;;;;;27.54;60.47;101161.09;5085390;27;67203;-37
2023/01/06 02:27:00;;;;;;;;;;;;;;;27.57;60.51;101168.78;5059358;27;69172;-37
2023/01/06 02:29:49;;;;;;;;;;;;;;;27.59;60.61;101182.09;5093689;27;65719;-36
2023/01/06 02:32:26;;;;;;;;;;;;;;;27.60;60.49;101189.13;5056956;27;70456;-37
2023/01/06 02:35:15;;;;;;;;;;;;;;;27.61;60.57;101177.34;5092590;27;66169;-40
2023/01/06 02:38:06;;;;;;;;;;;;;;;27.62;60.56;101174.44;5091575;27;69833;-36
2023/01/06 02:40:48;;;;;;;;;;;;;;;27.63;60.22;101184.19;5067121;27;66597;-36
2023/01/06 02:43:21;;;;;;;;;;;;;;;27.64;60.53;101182.34;5053109;27;70557;-37
2023/01/06 02:46:00;;;;;;;;;;;;;;;27.66;60.02;101185.66;5086494;27;66727;-36
2023/01/06 02:48:49;;;;;;;;;;;;;;;27.68;60.15;101177.41;5073174;27;70765;-36
2023/01/06 02:51:24;;;;;;;;;;;;;;;27.68;60.26;101172.00;5055418;27;66996;-36
2023/01/06 02:54:14;;;;;;;;;;;;;;;27.70;60.20;101175.34;5051196;27;70438;-37
2023/01/06 02:56:49;;;;;;;;;;;;;;;27.71;60.12;101177.84;5064970;27;66662;-36
2023/01/06 02:59:30;;;;;;;;;;;;;;;27.72;59.95;101182.22;5074974;27;68362;-37
2023/01/06 03:02:03;;;;;;;;;;;;;;;27.75;59.68;101189.06;5068563;27;66099;-38
2023/01/06 03:04:43;;;;;;;;;;;;;;;27.75;59.75;101194.47;5088938;27;69372;-39
2023/01/06 03:07:15;;;;;;;;;;;;;;;27.78;59.91;101184.16;5078599;27;66118;-36
2023/01/06 03:09:50;;;;;;;;;;;;;;;27.80;59.67;101183.97;5056287;28;69856;-39
2023/01/06 03:12:29;;;;;;;;;;;;;;;27.81;59.66;101185.66;5052526;27;67009;-38
2023/01/06 03:15:00;;;;;;;;;;;;;;;27.83;59.44;101180.88;5069706;27;70617;-37
2023/01/06 03:17:31;;;;;;;;;;;;;;;27.85;59.88;101176.97;5064296;27;66818;-37
2023/01/06 03:20:03;;;;;;;;;;;;;;;27.87;59.41;101178.66;5064804;27;70402;-36
2023/01/06 03:22:37;;;;;;;;;;;;;;;27.88;59.25;101167.66;5079400;27;66397;-38
2023/01/06 03:25:09;;;;;;;;;;;;;;;27.90;59.55;101171.03;5083423;27;69943;-39
2023/01/06 03:27:42;;;;;;;;;;;;;;;27.92;59.19;101168.16;5066074;27;65075;-37
2023/01/06 03:30:15;;;;;;;;;;;;;;;27.94;59.45;101161.50;5067582;27;70126;-40
2023/01/06 03:32:49;;;;;;;;;;;;;;;27.95;59.21;101152.41;5085399;27;66602;-37
2023/01/06 03:35:43;;;;;;;;;;;;;;;27.97;59.13;101152.19;5083342;27;69857;-37
2023/01/06 03:38:21;;;;;;;;;;;;;;;28.00;58.84;101141.88;5073515;27;66516;-36
2023/01/06 03:40:57;;;;;;;;;;;;;;;28.03;59.08;101133.41;5084402;27;69583;-37
2023/01/06 03:43:51;;;;;;;;;;;;;;;28.05;58.75;101136.72;5067356;27;66628;-39
2023/01/06 03:46:22;;;;;;;;;;;;;;;28.07;58.83;101120.34;5090017;27;69049;-36
2023/01/06 03:48:56;;;;;;;;;;;;;;;28.09;58.59;101110.19;5075275;27;67044;-37
2023/01/06 03:51:34;;;;;;;;;;;;;;;28.12;58.62;101119.75;5069386;27;70351;-36
2023/01/06 03:54:28;;;;;;;;;;;;;;;28.13;58.79;101114.16;5083405;27;66550;-37
2023/01/06 03:57:00;;;;;;;;;;;;;;;28.16;58.33;101115.63;5078208;27;70317;-41
2023/01/06 03:59:34;;;;;;;;;;;;;;;28.18;58.71;101108.19;5074247;27;67994;-40
2023/01/06 04:02:05;;;;;;;;;;;;;;;28.21;58.61;101115.88;5086419;27;70458;-39
2023/01/06 04:04:37;;;;;;;;;;;;;;;28.22;58.49;101114.84;5079387;27;65550;-38
2023/01/06 04:07:08;;;;;;;;;;;;;;;28.24;58.19;101102.81;5058446;27;70069;-38
2023/01/06 04:09:41;;;;;;;;;;;;;;;28.27;58.14;101115.09;5045011;28;66144;-41
2023/01/06 04:15:02;;;;;;;;;;;;;;;28.31;57.96;101108.28;5079532;27;66480;-37
2023/01/06 04:17:33;;;;;;;;;;;;;;;28.33;58.05;101099.97;5087987;27;70438;-39
2023/01/06 04:20:05;;;;;;;;;;;;;;;28.36;57.61;101103.13;5060929;27;65950;-37
2023/01/06 04:22:36;;;;;;;;;;;;;;;28.38;57.97;101097.53;5065360;28;69159;-37
2023/01/06 04:25:07;;;;;;;;;;;;;;;28.41;57.73;101086.31;5057975;27;66559;-37
2023/01/06 04:27:40;;;;;;;;;;;;;;;28.43;57.43;101085.13;5058647;28;69826;-38
2023/01/06 04:30:12;;;;;;;;;;;;;;;28.47;57.62;101078.31;5061566;27;67342;-38
2023/01/06 04:32:44;;;;;;;;;;;;;;;28.04;57.36;101015.56;5052838;28;70600;-38
2023/01/06 04:35:14;;;;;;;;;;;;;;;28.50;56.95;101071.66;5072888;27;67216;-38
2023/01/06 04:37:45;;;;;;;;;;;;;;;28.55;56.90;101068.38;5057501;27;70049;-40
2023/01/06 04:40:16;;;;;;;;;;;;;;;28.57;56.96;101063.63;5080270;27;66179;-39
2023/01/06 04:43:06;;;;;;;;;;;;;;;28.58;56.46;101066.09;5057705;27;69214;-39
2023/01/06 04:45:38;;;;;;;;;;;;;;;28.62;56.87;101055.75;5076796;27;66912;-36
2023/01/06 04:48:10;;;;;;;;;;;;;;;28.66;56.22;101055.13;5081598;27;70445;-38
2023/01/06 04:50:41;;;;;;;;;;;;;;;28.68;56.64;101041.44;5082165;27;65534;-40
2023/01/06 04:53:12;;;;;;;;;;;;;;;28.71;56.66;101038.34;5052742;28;70838;-38
2023/01/06 04:55:43;;;;;;;;;;;;;;;28.73;56.19;101033.59;5083066;27;66661;-37
2023/01/06 04:58:14;;;;;;;;;;;;;;;28.77;56.09;101036.72;5083733;27;70442;-38
2023/01/06 05:00:45;;;;;;;;;;;;;;;28.79;55.78;101024.69;5056109;27;66334;-37
2023/01/06 05:03:16;;;;;;;;;;;;;;;28.81;56.30;101025.31;5081318;27;70364;-37
2023/01/06 05:05:47;;;;;;;;;;;;;;;28.80;56.33;101015.53;5075362;27;67622;-38
2023/01/06 05:08:17;;;;;;;;;;;;;;;28.84;56.09;101021.38;5055379;27;70771;-38
2023/01/06 05:10:49;;;;;;;;;;;;;;;28.85;56.23;101007.66;5077828;27;66268;-40
2023/01/06 05:13:19;;;;;;;;;;;;;;;28.88;55.97;101009.94;5081554;27;69752;-38
2023/01/06 05:15:51;;;;;;;;;;;;;;;28.90;56.43;101007.88;5075787;27;65963;-41
2023/01/06 05:18:21;;;;;;;;;;;;;;;28.92;56.04;101003.13;5060480;27;69170;-38
2023/01/06 05:20:53;;;;;;;;;;;;;;;28.74;56.27;100962.34;5076862;27;65938;-37
2023/01/06 05:23:24;;;;;;;;;;;;;;;28.95;56.19;100986.50;5073513;27;69875;-38
2023/01/06 05:25:55;;;;;;;;;;;;;;;28.98;56.02;100981.75;5078053;27;66261;-38
2023/01/06 05:28:27;;;;;;;;;;;;;;;29.00;55.69;100977.78;5055112;27;70437;-41
2023/01/06 05:31:08;;;;;;;;;;;;;;;29.02;56.21;100974.88;5080815;27;65380;-37
2023/01/06 05:33:39;;;;;;;;;;;;;;;29.04;56.10;100975.53;5078071;27;70535;-38
2023/01/06 05:36:11;;;;;;;;;;;;;;;29.05;56.19;100961.81;5078035;27;66050;-38
2023/01/06 05:38:42;;;;;;;;;;;;;;;29.06;56.16;100959.94;5075625;27;70719;-37
2023/01/06 05:41:13;;;;;;;;;;;;;;;29.07;55.87;100956.22;5079897;27;67140;-39
2023/01/06 05:43:44;;;;;;;;;;;;;;;29.09;55.74;100959.56;5058593;28;70339;-38
2023/01/06 05:46:14;;;;;;;;;;;;;;;29.11;55.52;100946.66;5077007;27;66875;-38
2023/01/06 05:48:45;;;;;;;;;;;;;;;29.12;55.98;100948.34;5070431;27;69634;-37
2023/01/06 05:51:17;;;;;;;;;;;;;;;29.13;56.09;100944.59;5082470;27;65473;-38
2023/01/06 05:53:48;;;;;;;;;;;;;;;29.14;55.95;100940.84;5076436;27;69415;-37
2023/01/06 05:56:20;;;;;;;;;;;;;;;29.15;55.61;100942.50;5082863;27;66912;-42
2023/01/06 05:58:52;;;;;;;;;;;;;;;29.16;55.82;100938.75;5079009;27;70240;-39
2023/01/06 06:01:24;;;;;;;;;;;;;;;29.17;55.94;100935.03;5079355;27;64979;-39
2023/01/06 06:03:55;;;;;;;;;;;;;;;29.18;55.35;100934.00;5073331;27;69663;-40
2023/01/06 06:06:27;;;;;;;;;;;;;;;29.18;55.95;100923.19;5057904;27;66404;-38
2023/01/06 06:08:58;;;;;;;;;;;;;;;29.20;55.94;100923.81;5080442;27;70251;-38
2023/01/06 06:11:29;;;;;;;;;;;;;;;29.23;55.49;100923.41;5058120;28;66086;-40
2023/01/06 06:14:00;;;;;;;;;;;;;;;29.23;55.66;100912.59;5079178;27;69835;-39
2023/01/06 06:16:31;;;;;;;;;;;;;;;29.24;55.48;100911.53;5077938;27;66627;-41
2023/01/06 06:19:02;;;;;;;;;;;;;;;29.25;55.83;100910.50;5082871;27;69672;-39
2023/01/06 06:21:32;;;;;;;;;;;;;;;29.26;55.70;100901.38;5041357;27;66748;-40
2023/01/06 06:24:03;;;;;;;;;;;;;;;29.27;55.69;100897.63;5084197;27;69792;-38
2023/01/06 06:26:34;;;;;;;;;;;;;;;29.26;55.82;100889.72;5072469;27;66960;-38
2023/01/06 06:29:06;;;;;;;;;;;;;;;29.29;55.26;100890.13;5088500;27;69249;-38
2023/01/06 06:31:37;;;;;;;;;;;;;;;29.30;55.39;100880.97;5079467;27;65346;-39
2023/01/06 06:34:10;;;;;;;;;;;;;;;29.32;55.43;100887.00;5091134;27;68937;-38
2023/01/06 06:36:40;;;;;;;;;;;;;;;29.34;55.41;100884.13;5084386;27;65681;-37
2023/01/06 06:39:11;;;;;;;;;;;;;;;29.35;55.17;100870.38;5065057;28;70243;-38
2023/01/06 06:41:42;;;;;;;;;;;;;;;29.37;55.11;100875.59;5084425;27;65596;-37
2023/01/06 06:44:13;;;;;;;;;;;;;;;29.40;54.90;100864.34;5077730;27;71056;-37
2023/01/06 06:46:44;;;;;;;;;;;;;;;29.39;55.44;100852.72;5079910;27;66573;-38
2023/01/06 06:49:15;;;;;;;;;;;;;;;29.42;55.37;100856.03;5076566;27;70418;-38
2023/01/06 06:51:46;;;;;;;;;;;;;;;29.45;55.42;100850.19;5045590;28;66763;-37
2023/01/06 06:54:17;;;;;;;;;;;;;;;29.47;55.15;100846.25;5075675;27;70582;-44
2023/01/06 06:56:48;;;;;;;;;;;;;;;29.50;55.01;100853.09;5083090;27;66254;-39
2023/01/06 06:59:20;;;;;;;;;;;;;;;29.28;55.14;100801.19;5077664;27;69789;-40
2023/01/06 07:01:50;;;;;;;;;;;;;;;29.54;55.13;100840.84;5083184;27;67040;-38
2023/01/06 07:04:21;;;;;;;;;;;;;;;29.55;54.67;100846.00;5079832;27;70313;-38
2023/01/06 07:06:53;;;;;;;;;;;;;;;29.57;55.22;100843.94;5056330;27;65100;-37
2023/01/06 07:09:23;;;;;;;;;;;;;;;29.59;55.05;100846.44;5062789;27;69939;-37
2023/01/06 07:11:54;;;;;;;;;;;;;;;29.61;54.69;100845.19;5057355;28;66169;-40
2023/01/06 07:14:25;;;;;;;;;;;;;;;29.62;55.07;100827.09;5081781;27;70490;-37
2023/01/06 07:16:59;;;;;;;;;;;;;;;29.64;55.03;100833.13;5066953;27;65509;-39
2023/01/06 07:19:29;;;;;;;;;;;;;;;29.67;55.01;100826.47;5085339;27;70365;-38
2023/01/06 07:22:00;;;;;;;;;;;;;;;29.68;55.00;100811.91;5077658;27;65730;-37
2023/01/06 07:24:31;;;;;;;;;;;;;;;29.69;54.69;100814.38;5084489;27;70242;-40
2023/01/06 07:27:02;;;;;;;;;;;;;;;29.71;54.62;100806.91;5077755;27;67012;-37
2023/01/06 07:29:32;;;;;;;;;;;;;;;29.74;54.40;100817.28;5080869;27;70653;-38
2023/01/06 07:32:04;;;;;;;;;;;;;;;29.76;55.01;100809.81;5079977;27;66408;-42
2023/01/06 07:34:38;;;;;;;;;;;;;;;29.76;54.90;100808.97;5079329;27;70330;-40
2023/01/06 07:37:09;;;;;;;;;;;;;;;29.78;54.42;100805.00;5064992;27;67102;-37
2023/01/06 07:39:40;;;;;;;;;;;;;;;29.79;54.34;100803.97;5077053;27;70158;-39
2023/01/06 07:42:11;;;;;;;;;;;;;;;29.82;54.26;100802.69;5063624;27;66138;-41
2023/01/06 07:44:41;;;;;;;;;;;;;;;29.82;54.49;100798.13;5078788;27;70281;-39
2023/01/06 07:47:13;;;;;;;;;;;;;;;29.83;54.71;100799.78;5040421;28;65639;-38
2023/01/06 07:49:43;;;;;;;;;;;;;;;29.86;54.15;100800.38;5078664;27;70541;-38
2023/01/06 07:52:14;;;;;;;;;;;;;;;29.86;54.48;100792.28;5079800;27;65528;-39
2023/01/06 07:54:45;;;;;;;;;;;;;;;29.89;54.14;100802.66;5057642;27;69022;-38
2023/01/06 07:57:16;;;;;;;;;;;;;;;29.91;54.16;100797.88;5080157;27;66590;-38
2023/01/06 07:59:47;;;;;;;;;;;;;;;29.89;54.32;100795.38;5079834;27;70657;-38
2023/01/06 08:02:19;;;;;;;;;;;;;;;29.92;53.96;100802.22;5083672;27;66205;-40
2023/01/06 08:04:49;;;;;;;;;;;;;;;29.91;54.19;100801.41;5058791;27;69346;-38
2023/01/06 08:07:20;;;;;;;;;;;;;;;29.92;53.95;100802.22;5073553;27;67091;-39
2023/01/06 08:09:51;;;;;;;;;;;;;;;29.94;54.20;100794.75;5080381;27;70542;-36
2023/01/06 08:12:22;;;;;;;;;;;;;;;29.95;54.47;100793.69;5076846;27;66986;-37
2023/01/06 08:14:53;;;;;;;;;;;;;;;29.97;54.22;100788.88;5080356;27;70976;-37
2023/01/06 08:17:23;;;;;;;;;;;;;;;29.97;54.27;100780.78;5086181;27;66096;-38
2023/01/06 08:19:54;;;;;;;;;;;;;;;29.98;53.79;100795.97;5082501;27;70433;-37
2023/01/06 08:22:25;;;;;;;;;;;;;;;29.98;54.48;100785.16;5085657;27;66401;-37
2023/01/06 08:24:56;;;;;;;;;;;;;;;30.00;54.19;100799.28;5082425;27;69825;-39
2023/01/06 08:27:27;;;;;;;;;;;;;;;30.01;54.31;100800.94;5078711;27;68069;-37
2023/01/06 08:29:57;;;;;;;;;;;;;;;30.02;53.95;100791.78;5082457;27;70621;-40
2023/01/06 08:32:28;;;;;;;;;;;;;;;30.03;54.11;100786.16;5076882;27;66022;-39
2023/01/06 08:34:59;;;;;;;;;;;;;;;30.04;53.77;100787.00;5060507;28;70782;-37
2023/01/06 08:37:30;;;;;;;;;;;;;;;30.05;53.93;100794.88;5055106;28;64767;-42
2023/01/06 08:40:01;;;;;;;;;;;;;;;30.06;53.97;100803.81;5075742;27;70042;-38
2023/01/06 08:42:32;;;;;;;;;;;;;;;30.06;54.05;100795.69;5073332;27;66371;-38
2023/01/06 08:45:03;;;;;;;;;;;;;;;30.09;53.75;100792.59;5070676;27;70101;-41
2023/01/06 08:47:35;;;;;;;;;;;;;;;30.06;53.70;100787.59;5074480;27;66591;-38
2023/01/06 08:50:06;;;;;;;;;;;;;;;30.07;53.91;100789.25;5078414;27;70327;-40
2023/01/06 08:52:36;;;;;;;;;;;;;;;30.09;53.80;100792.59;5079216;27;66687;-38
2023/01/06 08:55:07;;;;;;;;;;;;;;;30.09;54.02;100794.44;5086638;27;70160;-38
2023/01/06 08:57:38;;;;;;;;;;;;;;;30.09;53.90;100787.19;5081058;27;65976;-37
2023/01/06 09:00:09;;;;;;;;;;;;;;;30.10;53.59;100791.53;5083105;27;69407;-37
2023/01/06 09:02:40;;;;;;;;;;;;;;;30.10;54.02;100783.41;5086740;27;66874;-36
2023/01/06 09:05:12;;;;;;;;;;;;;;;30.10;54.09;100783.41;5065538;27;70803;-40
2023/01/06 09:07:43;;;;;;;;;;;;;;;30.10;53.71;100799.66;5073977;27;66510;-40
2023/01/06 09:10:14;;;;;;;;;;;;;;;30.09;53.65;100798.00;5064724;27;69125;-37
2023/01/06 09:12:45;;;;;;;;;;;;;;;30.11;53.79;100805.88;5085117;27;67045;-38
2023/01/06 09:15:17;;;;;;;;;;;;;;;30.10;53.82;100802.34;5083502;27;69661;-38
2023/01/06 09:17:48;;;;;;;;;;;;;;;30.10;54.10;100801.53;5091793;27;66619;-40
2023/01/06 09:20:19;;;;;;;;;;;;;;;30.35;53.52;100813.25;5077041;27;69925;-40
2023/01/06 09:22:50;;;;;;;;;;;;;;;30.21;54.47;100801.66;5077764;27;66411;-42
2023/01/06 09:25:21;;;;;;;;;;;;;;;30.08;54.79;100800.91;5086332;27;70404;-38
2023/01/06 09:27:52;;;;;;;;;;;;;;;29.98;55.56;100804.09;5059176;27;65565;-37
2023/01/06 09:30:24;;;;;;;;;;;;;;;29.90;55.54;100809.75;5080780;27;69473;-38
2023/01/06 09:32:54;;;;;;;;;;;;;;;29.83;55.85;100820.56;5084377;27;66527;-36
2023/01/06 09:35:25;;;;;;;;;;;;;;;29.77;56.38;100822.25;5063936;27;70824;-34
2023/01/06 09:37:56;;;;;;;;;;;;;;;29.74;56.73;100820.00;5060822;27;65652;-37
2023/01/06 09:40:56;;;;;;;;;;;;;;;29.72;56.94;100832.88;5083418;27;69783;-36
2023/01/06 09:43:38;;;;;;;;;;;;;;;29.72;56.78;100830.19;5077613;27;64806;-38
2023/01/06 09:46:09;;;;;;;;;;;;;;;29.67;57.27;100837.28;5088237;27;70618;-37
2023/01/06 09:48:44;;;;;;;;;;;;;;;29.70;57.68;100843.09;5052864;27;66930;-35
2023/01/06 09:51:20;;;;;;;;;;;;;;;29.68;57.80;100845.19;5077205;27;70282;-36
2023/01/06 09:53:54;;;;;;;;;;;;;;;29.71;57.39;100843.94;5079233;27;66726;-40
2023/01/06 09:56:25;;;;;;;;;;;;;;;29.67;57.98;100843.53;5081067;27;70409;-36
2023/01/06 09:58:58;;;;;;;;;;;;;;;29.68;57.43;100849.75;5083063;27;67353;-36
2023/01/06 10:01:37;;;;;;;;;;;;;;;29.70;57.46;100853.91;5069171;27;68964;-37
2023/01/06 10:04:16;;;;;;;;;;;;;;;29.67;57.72;100854.34;5083013;27;66857;-37
2023/01/06 10:06:54;;;;;;;;;;;;;;;29.66;58.02;100841.84;5075640;27;69825;-37
2023/01/06 10:09:27;;;;;;;;;;;;;;;29.64;58.28;100843.94;5075094;27;66689;-34
2023/01/06 10:12:09;;;;;;;;;;;;;;;29.69;58.22;100851.41;5063421;27;70353;-34
2023/01/06 10:14:49;;;;;;;;;;;;;;;29.66;57.99;100860.78;5078534;27;65897;-35
2023/01/06 10:17:38;;;;;;;;;;;;;;;29.32;58.08;100819.47;5082589;27;71793;-38
2023/01/06 10:20:27;;;;;;;;;;;;;;;29.65;57.82;100861.84;5081380;27;65337;-37
2023/01/06 10:23:11;;;;;;;;;;;;;;;29.64;58.00;100865.56;5070173;28;69686;-36
2023/01/06 10:25:57;;;;;;;;;;;;;;;29.61;58.14;100872.22;5054106;27;67091;-39
2023/01/06 10:28:31;;;;;;;;;;;;;;;29.62;59.10;100868.47;5081776;27;70909;-37
2023/01/06 10:31:11;;;;;;;;;;;;;;;29.66;58.79;100874.28;5084100;27;66661;-37
2023/01/06 10:33:49;;;;;;;;;;;;;;;29.68;59.50;100880.34;5082811;27;70604;-40
2023/01/06 10:36:25;;;;;;;;;;;;;;;29.68;58.92;100891.16;5085495;27;65324;-40
2023/01/06 10:38:57;;;;;;;;;;;;;;;29.71;59.25;100888.00;5075876;27;70659;-37
2023/01/06 10:41:37;;;;;;;;;;;;;;;29.74;59.41;100890.28;5083796;27;66315;-39
2023/01/06 10:44:10;;;;;;;;;;;;;;;29.73;59.38;100896.75;5078311;27;69444;-37
2023/01/06 10:46:44;;;;;;;;;;;;;;;29.76;60.00;100901.72;5077757;27;65560;-37
2023/01/06 10:49:17;;;;;;;;;;;;;;;29.72;59.84;100900.47;5083949;27;70250;-37
2023/01/06 10:51:54;;;;;;;;;;;;;;;29.72;60.03;100900.47;5077295;27;66058;-37
2023/01/06 10:54:27;;;;;;;;;;;;;;;29.70;59.54;100905.28;5078402;27;70585;-38
2023/01/06 10:57:09;;;;;;;;;;;;;;;29.69;60.20;100913.59;5076182;27;66921;-37
2023/01/06 10:59:58;;;;;;;;;;;;;;;29.69;60.47;100911.72;5080638;27;70360;-39
2023/01/06 11:02:30;;;;;;;;;;;;;;;29.71;60.38;100912.34;5082032;27;66269;-39
2023/01/06 11:05:01;;;;;;;;;;;;;;;29.69;60.62;100906.31;5064714;27;69875;-39
2023/01/06 11:07:33;;;;;;;;;;;;;;;29.70;60.91;100912.53;5077831;27;65620;-40
2023/01/06 11:10:24;;;;;;;;;;;;;;;29.72;61.63;100924.81;5082658;27;71175;-39
2023/01/06 11:12:55;;;;;;;;;;;;;;;29.70;61.94;100916.09;5079534;27;66876;-39
2023/01/06 11:15:30;;;;;;;;;;;;;;;29.71;62.62;100928.56;5084445;27;69679;-40
2023/01/06 11:18:03;;;;;;;;;;;;;;;29.72;63.32;100937.50;5087330;27;66086;-36
2023/01/06 11:20:34;;;;;;;;;;;;;;;29.72;63.32;100938.31;5068337;28;70630;-38
2023/01/06 11:23:20;;;;;;;;;;;;;;;29.70;63.30;100945.84;5088192;27;66312;-37
2023/01/06 11:26:04;;;;;;;;;;;;;;;29.70;63.90;100951.25;5075295;27;70134;-39
2023/01/06 11:28:35;;;;;;;;;;;;;;;29.47;63.99;100945.41;5074707;27;66946;-38
2023/01/06 11:31:18;;;;;;;;;;;;;;;29.47;63.81;100954.34;5079788;27;70230;-37
2023/01/06 11:33:54;;;;;;;;;;;;;;;29.53;63.15;100949.97;5073245;27;66887;-38
2023/01/06 11:36:31;;;;;;;;;;;;;;;29.34;62.20;100925.47;5076686;27;69642;-38
2023/01/06 11:39:12;;;;;;;;;;;;;;;29.60;62.13;100961.63;5080068;27;65677;-39
2023/01/06 11:41:45;;;;;;;;;;;;;;;29.64;61.44;100962.06;5084632;27;70253;-39
2023/01/06 11:44:18;;;;;;;;;;;;;;;29.68;61.53;100969.53;5071126;27;67114;-38
2023/01/06 11:46:51;;;;;;;;;;;;;;;29.70;61.73;100972.88;5086047;27;70548;-39
2023/01/06 11:49:34;;;;;;;;;;;;;;;29.71;61.14;100974.53;5080836;27;66247;-38
2023/01/06 11:52:07;;;;;;;;;;;;;;;29.73;61.44;100966.22;5075137;27;70580;-38
2023/01/06 11:54:39;;;;;;;;;;;;;;;29.74;61.30;100968.69;5080641;27;67032;-40
2023/01/06 11:57:23;;;;;;;;;;;;;;;29.76;61.06;100971.19;5078120;27;69158;-41
2023/01/06 11:59:56;;;;;;;;;;;;;;;29.75;61.07;100974.94;5076468;27;66544;-38
2023/01/06 12:02:53;;;;;;;;;;;;;;;29.77;60.60;100975.56;5076734;27;69904;-41
2023/01/06 12:05:43;;;;;;;;;;;;;;;29.90;60.95;100999.06;5040233;27;65163;-39
2023/01/06 12:08:22;;;;;;;;;;;;;;;29.92;61.61;100995.09;5041082;27;70288;-39
2023/01/06 12:10:56;;;;;;;;;;;;;;;29.87;62.14;101000.31;5072748;27;66713;-38
2023/01/06 12:13:28;;;;;;;;;;;;;;;29.81;62.68;100999.28;5077735;27;69936;-38
2023/01/06 12:16:07;;;;;;;;;;;;;;;29.77;63.31;101000.72;5075383;27;66875;-38
2023/01/06 12:18:39;;;;;;;;;;;;;;;29.76;63.72;101004.47;5077400;27;69511;-38
2023/01/06 12:21:15;;;;;;;;;;;;;;;29.71;64.61;100996.16;5074272;27;67938;-35
2023/01/06 12:23:47;;;;;;;;;;;;;;;29.69;64.29;101002.81;5073072;27;70160;-38
2023/01/06 12:26:21;;;;;;;;;;;;;;;29.66;64.51;101003.22;5075452;27;65991;-39
2023/01/06 12:28:54;;;;;;;;;;;;;;;29.65;64.48;101002.41;5072696;27;70720;-38
2023/01/06 12:31:37;;;;;;;;;;;;;;;29.66;64.51;101006.75;5073776;27;67085;-41
2023/01/06 12:34:11;;;;;;;;;;;;;;;29.64;64.18;101006.13;5075749;27;70149;-41
2023/01/06 12:36:50;;;;;;;;;;;;;;;29.61;64.56;101017.34;5070312;27;65697;-40
2023/01/06 12:39:27;;;;;;;;;;;;;;;29.64;64.92;101019.66;5062300;27;70124;-38
2023/01/06 12:42:29;;;;;;;;;;;;;;;29.51;58.94;101012.34;5073071;27;67081;-40
2023/01/06 12:45:10;;;;;;;;;;;;;;;29.53;61.56;101025.66;5059976;27;69652;-38
2023/01/06 12:47:49;;;;;;;;;;;;;;;29.53;62.94;101022.94;5071183;27;65692;-40
2023/01/06 12:50:33;;;;;;;;;;;;;;;29.56;63.44;101020.69;5056741;27;72364;-40
2023/01/06 12:53:26;;;;;;;;;;;;;;;29.63;63.44;101028.81;5074063;27;66460;-40
2023/01/06 12:56:16;;;;;;;;;;;;;;;29.64;64.18;101019.66;5071187;27;70719;-38
2023/01/06 12:58:54;;;;;;;;;;;;;;;29.63;64.26;101026.09;5068962;27;66051;-35
2023/01/06 13:01:46;;;;;;;;;;;;;;;29.66;63.68;101035.66;5072758;27;70401;-39
2023/01/06 13:04:35;;;;;;;;;;;;;;;29.69;64.25;101027.97;5075846;27;65450;-39
2023/01/06 13:07:25;;;;;;;;;;;;;;;29.69;64.37;101033.38;5061701;27;69679;-39
2023/01/06 13:10:08;;;;;;;;;;;;;;;29.71;64.76;101038.59;5083343;27;66817;-37
2023/01/06 13:12:58;;;;;;;;;;;;;;;29.74;64.10;101039.00;5078107;27;69874;-36
2023/01/06 13:15:31;;;;;;;;;;;;;;;29.72;64.61;101038.38;5082486;27;66530;-38
2023/01/06 13:18:10;;;;;;;;;;;;;;;29.72;64.21;101034.84;5081974;27;70426;-38